createdAt,value
2023-04-22T00:00:02.469Z,68.34
2023-04-22T00:00:36.172Z,68.38
2023-04-22T00:01:24.778Z,68.43
2023-04-22T00:01:58.085Z,68.30
2023-04-22T00:02:32.743Z,68.45
2023-04-22T00:03:06.444Z,68.47
2023-04-22T00:03:42.663Z,68.41
2023-04-22T00:04:16.220Z,68.57
2023-04-22T00:04:49.948Z,68.63
2023-04-22T00:05:23.743Z,68.72
2023-04-22T00:05:57.688Z,68.83
2023-04-22T00:06:32.182Z,68.89
2023-04-22T00:07:05.692Z,68.95
2023-04-22T00:07:40.920Z,69.00
2023-04-22T00:08:14.299Z,69.03
2023-04-22T00:08:47.775Z,69.09
2023-04-22T00:09:21.282Z,69.18
2023-04-22T00:09:54.909Z,69.15
2023-04-22T00:10:28.565Z,69.04
2023-04-22T00:11:02.529Z,69.08
2023-04-22T00:11:35.720Z,68.93
2023-04-22T00:12:11.785Z,68.78
2023-04-22T00:12:44.983Z,68.84
2023-04-22T00:13:18.452Z,68.79
2023-04-22T00:13:51.720Z,68.77
2023-04-22T00:14:25.183Z,68.85
2023-04-22T00:14:58.579Z,68.89
2023-04-22T00:15:32.068Z,68.84
2023-04-22T00:16:05.784Z,68.90
2023-04-22T00:16:39.539Z,68.86
2023-04-22T00:17:12.814Z,68.74
2023-04-22T00:17:46.260Z,68.63
2023-04-22T00:18:19.913Z,68.67
2023-04-22T00:18:53.165Z,68.55
2023-04-22T00:19:26.453Z,68.59
2023-04-22T00:20:01.858Z,68.47
2023-04-22T00:20:36.718Z,68.52
2023-04-22T00:21:10.334Z,68.44
2023-04-22T00:21:43.669Z,68.41
2023-04-22T00:22:17.011Z,68.52
2023-04-22T00:22:50.557Z,68.66
2023-04-22T00:23:23.925Z,68.79
2023-04-22T00:23:57.397Z,68.84
2023-04-22T00:24:31.100Z,69.00
2023-04-22T00:25:04.811Z,69.01
2023-04-22T00:25:38.913Z,69.14
2023-04-22T00:26:12.372Z,69.16
2023-04-22T00:26:45.850Z,69.18
2023-04-22T00:27:19.165Z,69.26
2023-04-22T00:27:52.620Z,69.06
2023-04-22T00:28:25.995Z,68.95
2023-04-22T00:28:59.186Z,68.86
2023-04-22T00:29:32.776Z,68.99
2023-04-22T00:30:06.998Z,69.18
2023-04-22T00:30:40.164Z,69.27
2023-04-22T00:31:13.606Z,69.45
2023-04-22T00:31:48.123Z,69.50
2023-04-22T00:32:22.901Z,69.40
2023-04-22T00:32:56.500Z,69.49
2023-04-22T00:33:29.955Z,69.40
2023-04-22T00:34:03.518Z,69.46
2023-04-22T00:34:36.791Z,69.32
2023-04-22T00:35:10.186Z,69.27
2023-04-22T00:35:43.702Z,69.07
2023-04-22T00:36:16.940Z,68.93
2023-04-22T00:36:51.652Z,68.97
2023-04-22T00:37:26.015Z,68.89
2023-04-22T00:55:55.930Z,68.78
2023-04-22T00:56:30.238Z,68.77
2023-04-22T00:57:05.675Z,68.59
2023-04-22T00:57:40.792Z,68.53
2023-04-22T00:58:15.033Z,68.65
2023-04-22T00:58:48.253Z,68.64
2023-04-22T00:59:24.614Z,68.56
2023-04-22T00:59:58.297Z,68.54
2023-04-22T01:00:31.722Z,68.50
2023-04-22T01:01:05.364Z,68.52
2023-04-22T01:01:39.060Z,68.46
2023-04-22T01:02:12.762Z,68.48
2023-04-22T01:02:47.691Z,68.45
2023-04-22T01:03:22.616Z,68.27
2023-04-22T01:03:57.662Z,68.26
2023-04-22T01:04:31.722Z,68.32
2023-04-22T01:05:06.425Z,68.19
2023-04-22T01:05:41.559Z,67.99
2023-04-22T01:06:14.767Z,68.00
2023-04-22T01:06:49.029Z,67.92
2023-04-22T01:07:22.198Z,67.94
2023-04-22T01:07:55.588Z,67.90
2023-04-22T01:08:32.472Z,67.84
2023-04-22T01:09:07.210Z,67.83
2023-04-22T01:09:41.706Z,67.80
2023-04-22T01:10:15.398Z,67.87
2023-04-22T01:10:48.745Z,67.92
2023-04-22T01:11:22.254Z,67.95
2023-04-22T01:11:56.560Z,67.82
2023-04-22T01:12:29.922Z,67.93
2023-04-22T01:13:03.200Z,67.95
2023-04-22T01:13:38.482Z,67.93
2023-04-22T01:14:11.920Z,68.08
2023-04-22T01:14:45.337Z,67.95
2023-04-22T01:15:18.908Z,67.92
2023-04-22T01:15:54.123Z,67.98
2023-04-22T01:16:29.252Z,67.97
2023-04-22T01:17:03.628Z,67.90
2023-04-22T01:17:37.054Z,67.93
2023-04-22T01:18:10.345Z,68.08
2023-04-22T01:18:43.713Z,68.04
2023-04-22T01:19:18.220Z,68.06
2023-04-22T01:19:53.052Z,68.19
2023-04-22T01:20:29.750Z,68.15
2023-04-22T01:21:03.566Z,68.11
2023-04-22T01:21:39.410Z,68.02
2023-04-22T01:22:14.319Z,68.00
2023-04-22T01:22:50.986Z,68.05
2023-04-22T01:23:24.177Z,67.92
2023-04-22T01:23:57.761Z,67.96
2023-04-22T01:24:31.237Z,68.05
2023-04-22T01:25:05.130Z,68.12
2023-04-22T01:25:38.546Z,68.13
2023-04-22T01:26:12.534Z,68.19
2023-04-22T01:26:46.669Z,68.43
2023-04-22T01:27:20.802Z,68.34
2023-04-22T01:27:54.609Z,68.27
2023-04-22T01:28:28.914Z,68.19
2023-04-22T01:29:03.538Z,68.19
2023-04-22T01:29:38.847Z,68.24
2023-04-22T01:30:12.987Z,68.25
2023-04-22T01:30:46.449Z,68.16
2023-04-22T01:31:19.733Z,68.01
2023-04-22T01:31:53.702Z,67.97
2023-04-22T01:32:29.198Z,68.04
2023-04-22T01:33:02.837Z,68.09
2023-04-22T01:33:36.803Z,68.03
2023-04-22T01:34:10.117Z,67.95
2023-04-22T01:34:43.523Z,67.95
2023-04-22T01:35:16.881Z,67.85
2023-04-22T01:35:50.362Z,67.86
2023-04-22T01:36:23.794Z,67.84
2023-04-22T01:36:57.244Z,67.86
2023-04-22T01:37:31.259Z,67.92
2023-04-22T01:38:06.662Z,67.91
2023-04-22T01:38:41.073Z,67.96
2023-04-22T01:39:14.755Z,67.99
2023-04-22T01:39:48.387Z,67.95
2023-04-22T01:40:23.277Z,67.93
2023-04-22T01:40:56.997Z,67.91
2023-04-22T01:41:30.947Z,67.76
2023-04-22T01:42:04.888Z,67.89
2023-04-22T01:42:39.380Z,67.82
2023-04-22T01:43:12.672Z,67.59
2023-04-22T01:43:47.040Z,67.48
2023-04-22T01:44:20.845Z,67.46
2023-04-22T01:44:54.446Z,67.49
2023-04-22T01:45:28.629Z,67.61
2023-04-22T01:46:02.760Z,67.51
2023-04-22T01:46:36.048Z,67.35
2023-04-22T01:47:09.494Z,67.34
2023-04-22T01:47:42.943Z,67.33
2023-04-22T01:48:16.394Z,67.35
2023-04-22T01:48:52.724Z,67.34
2023-04-22T01:49:26.314Z,67.39
2023-04-22T01:49:59.902Z,67.34
2023-04-22T01:50:33.683Z,67.41
2023-04-22T01:51:07.235Z,67.69
2023-04-22T01:51:40.857Z,67.65
2023-04-22T01:52:14.871Z,67.65
2023-04-22T01:52:48.584Z,67.87
2023-04-22T01:53:21.745Z,67.77
2023-04-22T01:53:55.020Z,67.81
2023-04-22T01:54:28.372Z,68.10
2023-04-22T01:55:02.836Z,68.14
2023-04-22T01:55:37.556Z,68.28
2023-04-22T01:56:10.920Z,68.39
2023-04-22T01:56:51.069Z,68.32
2023-04-22T01:57:24.287Z,68.39
2023-04-22T01:57:57.587Z,68.38
2023-04-22T01:58:31.219Z,68.37
2023-04-22T01:59:05.287Z,68.31
2023-04-22T01:59:39.021Z,68.24
2023-04-22T02:00:13.077Z,68.23
2023-04-22T02:00:48.124Z,68.24
2023-04-22T02:01:21.664Z,68.40
2023-04-22T02:01:55.139Z,68.40
2023-04-22T02:02:28.708Z,68.42
2023-04-22T02:03:02.825Z,68.43
2023-04-22T02:03:36.780Z,68.19
2023-04-22T02:04:10.158Z,68.31
2023-04-22T02:04:43.773Z,68.41
2023-04-22T02:05:18.539Z,68.52
2023-04-22T02:05:51.839Z,68.56
2023-04-22T02:06:25.300Z,68.63
2023-04-22T02:06:58.811Z,68.62
2023-04-22T02:07:32.162Z,68.53
2023-04-22T02:08:05.966Z,68.53
2023-04-22T02:08:39.356Z,68.62
2023-04-22T02:09:12.849Z,68.58
2023-04-22T02:09:47.782Z,68.49
2023-04-22T02:10:22.583Z,68.53
2023-04-22T02:10:56.115Z,68.49
2023-04-22T02:11:29.648Z,68.34
2023-04-22T02:12:03.042Z,68.38
2023-04-22T02:12:36.421Z,68.39
2023-04-22T02:13:09.895Z,68.44
2023-04-22T02:13:43.369Z,68.47
2023-04-22T02:14:16.875Z,68.31
2023-04-22T02:14:50.359Z,68.28
2023-04-22T02:15:23.825Z,68.22
2023-04-22T02:15:57.146Z,68.23
2023-04-22T02:16:31.261Z,68.10
2023-04-22T02:17:05.233Z,68.15
2023-04-22T02:17:39.501Z,68.24
2023-04-22T02:18:12.668Z,68.12
2023-04-22T02:18:46.383Z,68.07
2023-04-22T02:19:19.555Z,68.07
2023-04-22T02:19:53.051Z,68.23
2023-04-22T02:20:26.340Z,68.15
2023-04-22T02:20:59.615Z,68.10
2023-04-22T02:21:33.102Z,68.15
2023-04-22T02:22:06.379Z,68.16
2023-04-22T02:22:42.196Z,67.90
2023-04-22T02:23:15.360Z,67.73
2023-04-22T02:23:48.671Z,67.91
2023-04-22T02:24:22.353Z,67.93
2023-04-22T02:24:56.480Z,67.79
2023-04-22T02:25:30.870Z,67.90
2023-04-22T02:26:04.281Z,67.98
2023-04-22T02:26:37.531Z,68.06
2023-04-22T02:27:10.952Z,68.11
2023-04-22T02:27:44.420Z,67.97
2023-04-22T02:28:18.406Z,68.11
2023-04-22T02:28:52.966Z,68.11
2023-04-22T02:29:26.317Z,68.07
2023-04-22T02:29:59.770Z,68.17
2023-04-22T02:30:32.985Z,67.88
2023-04-22T02:31:06.618Z,68.01
2023-04-22T02:31:40.011Z,67.97
2023-04-22T02:32:13.810Z,67.97
2023-04-22T02:32:47.331Z,68.19
2023-04-22T02:33:20.903Z,68.21
2023-04-22T02:33:54.071Z,67.99
2023-04-22T02:34:27.653Z,67.97
2023-04-22T02:35:02.435Z,67.92
2023-04-22T02:35:35.959Z,67.89
2023-04-22T02:36:09.448Z,68.12
2023-04-22T02:36:42.719Z,68.12
2023-04-22T02:37:16.334Z,68.22
2023-04-22T02:37:49.585Z,68.14
2023-04-22T02:38:22.973Z,67.99
2023-04-22T02:38:56.252Z,67.70
2023-04-22T02:39:29.631Z,67.69
2023-04-22T02:40:04.075Z,67.86
2023-04-22T02:40:37.630Z,67.92
2023-04-22T02:41:11.029Z,68.04
2023-04-22T02:41:44.289Z,68.08
2023-04-22T02:42:17.604Z,68.05
2023-04-22T02:42:51.411Z,68.10
2023-04-22T02:43:24.656Z,68.00
2023-04-22T02:43:57.933Z,67.89
2023-04-22T02:44:31.436Z,67.77
2023-04-22T02:45:05.294Z,67.92
2023-04-22T02:45:38.892Z,68.06
2023-04-22T02:46:16.782Z,67.84
2023-04-22T02:46:50.137Z,67.92
2023-04-22T02:47:24.693Z,67.69
2023-04-22T02:47:58.266Z,67.61
2023-04-22T02:48:31.750Z,67.74
2023-04-22T02:49:05.047Z,67.80
2023-04-22T02:49:38.568Z,67.85
2023-04-22T02:50:12.650Z,67.92
2023-04-22T02:50:46.004Z,67.78
2023-04-22T02:51:19.383Z,67.59
2023-04-22T02:51:52.760Z,67.40
2023-04-22T02:52:26.256Z,67.33
2023-04-22T02:52:59.851Z,67.31
2023-04-22T02:53:33.218Z,67.29
2023-04-22T02:54:06.602Z,67.29
2023-04-22T02:54:40.097Z,67.35
2023-04-22T02:55:13.363Z,67.57
2023-04-22T02:55:46.643Z,67.57
2023-04-22T02:56:21.316Z,67.80
2023-04-22T02:56:54.577Z,67.82
2023-04-22T02:57:27.820Z,67.99
2023-04-22T02:58:01.207Z,68.01
2023-04-22T02:58:35.095Z,68.03
2023-04-22T02:59:08.369Z,68.11
2023-04-22T02:59:42.115Z,68.24
2023-04-22T03:00:16.175Z,68.30
2023-04-22T03:00:49.606Z,68.40
2023-04-22T03:01:22.815Z,68.32
2023-04-22T03:01:56.325Z,68.31
2023-04-22T03:02:29.891Z,68.28
2023-04-22T03:03:03.473Z,68.29
2023-04-22T03:03:37.165Z,68.40
2023-04-22T03:04:12.557Z,68.37
2023-04-22T03:04:46.217Z,68.53
2023-04-22T03:05:19.683Z,68.66
2023-04-22T03:05:53.177Z,68.82
2023-04-22T03:06:26.364Z,68.86
2023-04-22T03:07:00.574Z,68.78
2023-04-22T03:07:33.836Z,68.67
2023-04-22T03:08:07.281Z,68.76
2023-04-22T03:08:40.845Z,68.71
2023-04-22T03:09:14.098Z,68.75
2023-04-22T03:09:47.332Z,68.68
2023-04-22T03:10:20.645Z,68.68
2023-04-22T03:10:54.240Z,68.69
2023-04-22T03:11:27.397Z,68.80
2023-04-22T03:12:00.600Z,68.80
2023-04-22T03:12:33.863Z,68.76
2023-04-22T03:13:07.364Z,68.75
2023-04-22T03:13:40.902Z,68.73
2023-04-22T03:14:14.435Z,68.80
2023-04-22T03:14:47.909Z,68.70
2023-04-22T03:15:22.033Z,68.62
2023-04-22T03:15:55.317Z,68.45
2023-04-22T03:16:28.714Z,68.51
2023-04-22T03:17:02.370Z,68.50
2023-04-22T03:17:36.265Z,68.60
2023-04-22T03:18:09.762Z,68.67
2023-04-22T03:18:43.051Z,68.57
2023-04-22T03:19:16.918Z,68.31
2023-04-22T03:19:50.105Z,68.25
2023-04-22T03:20:23.582Z,68.34
2023-04-22T03:20:57.285Z,68.27
2023-04-22T03:21:32.510Z,68.31
2023-04-22T03:22:05.778Z,68.27
2023-04-22T03:22:39.191Z,68.22
2023-04-22T03:23:12.766Z,67.99
2023-04-22T03:23:46.543Z,67.90
2023-04-22T03:24:19.845Z,67.83
2023-04-22T03:24:53.231Z,67.91
2023-04-22T03:25:26.817Z,68.04
2023-04-22T03:26:00.177Z,68.03
2023-04-22T03:26:33.583Z,67.97
2023-04-22T03:27:06.977Z,67.91
2023-04-22T03:27:40.349Z,67.91
2023-04-22T03:28:14.031Z,67.83
2023-04-22T03:28:47.606Z,68.03
2023-04-22T03:29:20.786Z,67.90
2023-04-22T03:29:54.062Z,67.83
2023-04-22T03:30:27.463Z,67.82
2023-04-22T03:31:00.830Z,67.93
2023-04-22T03:31:34.292Z,68.03
2023-04-22T03:32:08.015Z,68.06
2023-04-22T03:32:41.511Z,67.98
2023-04-22T03:33:14.756Z,67.88
2023-04-22T03:33:48.252Z,67.78
2023-04-22T03:34:21.486Z,67.88
2023-04-22T03:34:54.761Z,67.90
2023-04-22T03:35:28.218Z,67.78
2023-04-22T03:36:01.379Z,67.56
2023-04-22T03:36:34.695Z,67.71
2023-04-22T03:37:08.144Z,67.63
2023-04-22T03:37:41.442Z,67.82
2023-04-22T03:38:14.729Z,67.93
2023-04-22T03:38:48.205Z,68.16
2023-04-22T03:39:21.834Z,68.26
2023-04-22T03:39:55.262Z,68.24
2023-04-22T03:40:28.589Z,68.36
2023-04-22T03:41:02.032Z,68.44
2023-04-22T03:41:35.413Z,68.27
2023-04-22T03:42:08.732Z,68.20
2023-04-22T03:42:41.970Z,68.20
2023-04-22T03:43:15.471Z,68.19
2023-04-22T03:43:48.536Z,68.13
2023-04-22T03:44:21.914Z,68.07
2023-04-22T03:44:55.613Z,67.98
2023-04-22T03:45:29.404Z,68.09
2023-04-22T03:46:02.733Z,68.06
2023-04-22T03:46:36.039Z,68.06
2023-04-22T03:47:09.851Z,68.13
2023-04-22T03:47:43.820Z,68.18
2023-04-22T03:48:17.237Z,68.14
2023-04-22T03:48:50.415Z,68.25
2023-04-22T03:49:23.743Z,68.29
2023-04-22T03:49:57.180Z,68.19
2023-04-22T03:50:30.687Z,68.29
2023-04-22T03:51:04.363Z,68.41
2023-04-22T03:51:38.145Z,68.44
2023-04-22T03:52:11.434Z,68.48
2023-04-22T03:52:44.513Z,68.41
2023-04-22T03:53:17.884Z,68.60
2023-04-22T03:53:51.581Z,68.71
2023-04-22T03:54:27.946Z,68.62
2023-04-22T03:55:01.160Z,68.77
2023-04-22T03:55:34.809Z,68.83
2023-04-22T03:56:07.881Z,68.93
2023-04-22T03:56:41.586Z,68.97
2023-04-22T03:57:15.047Z,68.89
2023-04-22T03:57:48.248Z,68.86
2023-04-22T03:58:21.713Z,68.94
2023-04-22T03:58:54.990Z,68.96
2023-04-22T03:59:28.368Z,69.10
2023-04-22T04:00:01.754Z,69.23
2023-04-22T04:00:34.937Z,69.20
2023-04-22T04:01:08.322Z,69.12
2023-04-22T04:01:41.716Z,69.19
2023-04-22T04:02:15.252Z,68.91
2023-04-22T04:02:48.682Z,68.74
2023-04-22T04:03:22.644Z,68.63
2023-04-22T04:03:56.519Z,68.77
2023-04-22T04:04:30.287Z,68.73
2023-04-22T04:05:04.275Z,68.75
2023-04-22T04:05:38.014Z,68.71
2023-04-22T04:06:11.543Z,68.76
2023-04-22T04:06:45.048Z,68.79
2023-04-22T04:07:19.342Z,68.80
2023-04-22T04:07:52.708Z,68.77
2023-04-22T04:08:25.992Z,68.75
2023-04-22T04:08:59.465Z,68.72
2023-04-22T04:09:32.856Z,68.77
2023-04-22T04:10:06.705Z,68.66
2023-04-22T04:10:40.057Z,68.68
2023-04-22T04:11:13.538Z,68.78
2023-04-22T04:11:47.141Z,68.82
2023-04-22T04:12:21.022Z,68.80
2023-04-22T04:12:54.382Z,68.57
2023-04-22T04:13:32.631Z,68.52
2023-04-22T04:14:06.019Z,68.64
2023-04-22T04:14:39.340Z,68.60
2023-04-22T04:15:12.637Z,68.79
2023-04-22T04:15:46.138Z,68.91
2023-04-22T04:16:19.443Z,69.05
2023-04-22T04:16:52.708Z,69.20
2023-04-22T04:17:26.235Z,69.27
2023-04-22T04:18:01.577Z,69.52
2023-04-22T04:18:35.073Z,69.50
2023-04-22T04:19:08.659Z,69.62
2023-04-22T04:19:42.191Z,69.69
2023-04-22T04:20:16.323Z,69.75
2023-04-22T04:20:49.625Z,69.75
2023-04-22T04:21:23.004Z,69.81
2023-04-22T04:21:57.311Z,69.68
2023-04-22T04:22:30.587Z,69.63
2023-04-22T04:23:03.982Z,69.42
2023-04-22T04:23:38.182Z,69.41
2023-04-22T04:24:11.556Z,69.38
2023-04-22T04:24:44.941Z,69.43
2023-04-22T04:25:18.760Z,69.51
2023-04-22T04:25:52.746Z,69.73
2023-04-22T04:26:27.967Z,69.93
2023-04-22T04:27:02.259Z,69.98
2023-04-22T04:27:36.070Z,70.06
2023-04-22T04:28:11.475Z,70.04
2023-04-22T04:28:45.382Z,70.12
2023-04-22T04:29:21.978Z,70.21
2023-04-22T04:29:56.250Z,70.28
2023-04-22T04:30:31.099Z,70.42
2023-04-22T04:31:05.796Z,70.55
2023-04-22T04:31:39.499Z,70.57
2023-04-22T04:32:12.823Z,70.66
2023-04-22T04:32:46.263Z,70.71
2023-04-22T04:33:19.910Z,70.65
2023-04-22T04:33:53.395Z,70.44
2023-04-22T04:34:26.709Z,70.34
2023-04-22T04:35:01.912Z,70.22
2023-04-22T04:35:37.772Z,70.15
2023-04-22T04:36:11.562Z,70.08
2023-04-22T04:36:46.938Z,69.76
2023-04-22T04:37:20.188Z,69.63
2023-04-22T04:37:54.170Z,69.75
2023-04-22T04:38:27.549Z,69.78
2023-04-22T04:39:01.030Z,69.67
2023-04-22T04:39:34.291Z,69.55
2023-04-22T04:40:08.455Z,69.45
2023-04-22T04:40:43.943Z,69.18
2023-04-22T04:41:17.222Z,68.94
2023-04-22T04:41:55.512Z,68.69
2023-04-22T04:42:30.852Z,68.41
2023-04-22T04:43:08.566Z,68.17
2023-04-22T04:43:41.813Z,67.97
2023-04-22T04:44:16.247Z,67.82
2023-04-22T04:44:51.337Z,67.77
2023-04-22T04:45:25.053Z,67.90
2023-04-22T04:45:58.296Z,68.23
2023-04-22T04:46:32.750Z,68.36
2023-04-22T04:47:07.248Z,68.57
2023-04-22T04:47:40.536Z,68.61
2023-04-22T04:48:15.122Z,68.56
2023-04-22T04:48:49.128Z,68.60
2023-04-22T04:49:23.432Z,68.76
2023-04-22T04:49:58.955Z,68.91
2023-04-22T04:50:32.658Z,69.07
2023-04-22T04:51:06.660Z,69.18
2023-04-22T04:51:40.530Z,69.43
2023-04-22T04:52:13.699Z,69.53
2023-04-22T04:52:50.165Z,69.70
2023-04-22T04:53:23.552Z,69.56
2023-04-22T04:53:56.847Z,69.45
2023-04-22T04:54:30.410Z,69.39
2023-04-22T04:55:03.824Z,69.41
2023-04-22T04:55:37.656Z,69.29
2023-04-22T04:56:11.301Z,69.25
2023-04-22T04:56:44.792Z,69.33
2023-04-22T04:57:18.104Z,69.45
2023-04-22T04:57:51.727Z,69.52
2023-04-22T04:58:25.094Z,69.56
2023-04-22T04:58:58.525Z,69.49
2023-04-22T04:59:31.999Z,69.39
2023-04-22T05:00:06.082Z,69.45
2023-04-22T05:00:39.494Z,69.53
2023-04-22T05:01:13.028Z,69.42
2023-04-22T05:01:46.698Z,69.52
2023-04-22T05:02:20.338Z,69.57
2023-04-22T05:02:53.953Z,69.52
2023-04-22T05:03:27.500Z,69.55
2023-04-22T05:04:01.219Z,69.23
2023-04-22T05:04:34.862Z,69.19
2023-04-22T05:05:09.101Z,69.37
2023-04-22T05:05:42.578Z,69.42
2023-04-22T05:06:15.988Z,69.60
2023-04-22T05:06:49.340Z,69.51
2023-04-22T05:07:22.620Z,69.47
2023-04-22T05:07:56.116Z,69.48
2023-04-22T05:08:29.289Z,69.52
2023-04-22T05:09:02.664Z,69.45
2023-04-22T05:09:38.235Z,69.34
2023-04-22T05:10:12.020Z,69.34
2023-04-22T05:10:45.690Z,69.36
2023-04-22T05:11:18.882Z,69.52
2023-04-22T05:11:52.346Z,69.82
2023-04-22T05:12:25.947Z,70.06
2023-04-22T05:12:59.835Z,70.18
2023-04-22T05:13:33.733Z,70.18
2023-04-22T05:14:07.027Z,70.37
2023-04-22T05:14:41.830Z,70.53
2023-04-22T05:15:15.728Z,70.63
2023-04-22T05:15:49.577Z,70.71
2023-04-22T05:16:22.954Z,70.93
2023-04-22T05:16:56.623Z,70.81
2023-04-22T05:17:30.826Z,70.54
2023-04-22T05:18:04.224Z,70.26
2023-04-22T05:18:37.759Z,70.22
2023-04-22T05:19:11.141Z,70.11
2023-04-22T05:19:45.061Z,70.03
2023-04-22T05:20:18.646Z,69.98
2023-04-22T05:20:51.910Z,69.91
2023-04-22T05:21:25.679Z,69.85
2023-04-22T05:21:59.284Z,69.81
2023-04-22T05:22:32.576Z,69.94
2023-04-22T05:23:05.952Z,70.13
2023-04-22T05:23:39.840Z,70.32
2023-04-22T05:24:13.134Z,70.46
2023-04-22T05:24:46.611Z,70.43
2023-04-22T05:25:20.095Z,70.48
2023-04-22T05:25:53.685Z,70.55
2023-04-22T05:26:27.305Z,70.49
2023-04-22T05:27:01.160Z,70.18
2023-04-22T05:27:34.564Z,69.90
2023-04-22T05:28:07.839Z,69.70
2023-04-22T05:28:41.310Z,69.50
2023-04-22T05:29:14.709Z,69.36
2023-04-22T05:29:48.219Z,69.33
2023-04-22T05:30:21.764Z,69.27
2023-04-22T05:30:54.985Z,69.21
2023-04-22T05:31:29.465Z,69.16
2023-04-22T05:32:02.963Z,69.15
2023-04-22T05:32:36.409Z,69.08
2023-04-22T05:33:10.571Z,69.08
2023-04-22T05:33:44.012Z,69.09
2023-04-22T05:34:17.218Z,69.10
2023-04-22T05:34:51.291Z,69.14
2023-04-22T05:35:24.729Z,69.05
2023-04-22T05:35:58.180Z,69.00
2023-04-22T05:36:32.584Z,69.04
2023-04-22T05:37:06.160Z,68.97
2023-04-22T05:37:39.964Z,68.94
2023-04-22T05:38:13.210Z,68.97
2023-04-22T05:38:46.507Z,68.97
2023-04-22T05:39:20.849Z,69.03
2023-04-22T05:39:54.394Z,69.05
2023-04-22T05:40:27.681Z,69.07
2023-04-22T05:41:01.194Z,68.99
2023-04-22T05:41:34.581Z,68.91
2023-04-22T05:42:09.267Z,68.87
2023-04-22T05:42:42.776Z,68.89
2023-04-22T05:43:16.723Z,68.88
2023-04-22T05:43:50.036Z,68.81
2023-04-22T05:44:23.520Z,68.82
2023-04-22T05:44:56.888Z,68.87
2023-04-22T05:45:30.399Z,68.88
2023-04-22T05:46:04.054Z,68.87
2023-04-22T05:46:37.602Z,68.81
2023-04-22T05:47:11.293Z,68.84
2023-04-22T05:47:44.648Z,68.89
2023-04-22T05:48:18.327Z,68.85
2023-04-22T05:48:51.905Z,68.84
2023-04-22T05:49:25.385Z,68.73
2023-04-22T05:49:58.884Z,68.53
2023-04-22T05:50:32.253Z,68.52
2023-04-22T05:51:05.865Z,68.46
2023-04-22T05:51:39.143Z,68.28
2023-04-22T05:52:12.404Z,68.18
2023-04-22T05:52:46.203Z,68.21
2023-04-22T05:53:19.479Z,68.14
2023-04-22T05:53:52.759Z,68.00
2023-04-22T05:54:26.249Z,67.85
2023-04-22T05:54:59.527Z,67.83
2023-04-22T05:55:32.903Z,67.83
2023-04-22T05:56:06.412Z,67.70
2023-04-22T05:56:39.872Z,67.51
2023-04-22T05:57:13.270Z,67.39
2023-04-22T05:57:46.772Z,67.12
2023-04-22T05:58:20.236Z,66.94
2023-04-22T05:58:53.609Z,66.80
2023-04-22T05:59:26.894Z,66.56
2023-04-22T06:00:05.217Z,66.34
2023-04-22T06:00:38.677Z,66.10
2023-04-22T06:01:11.821Z,66.05
2023-04-22T06:01:45.253Z,65.83
2023-04-22T06:02:18.831Z,65.52
2023-04-22T06:02:52.418Z,65.18
2023-04-22T06:03:26.039Z,64.95
2023-04-22T06:03:59.853Z,64.67
2023-04-22T06:04:37.078Z,64.34
2023-04-22T06:05:10.943Z,64.18
2023-04-22T06:05:44.578Z,63.97
2023-04-22T06:06:19.041Z,63.79
2023-04-22T06:06:54.187Z,63.59
2023-04-22T06:07:27.587Z,63.96
2023-04-22T06:08:01.072Z,64.71
2023-04-22T06:08:34.866Z,65.09
2023-04-22T06:09:08.443Z,65.65
2023-04-22T06:09:42.361Z,66.28
2023-04-22T06:10:16.121Z,66.66
2023-04-22T06:10:50.542Z,66.81
2023-04-22T06:11:24.189Z,67.05
2023-04-22T06:11:58.516Z,67.22
2023-04-22T06:12:32.007Z,67.30
2023-04-22T06:13:05.181Z,67.35
2023-04-22T06:13:38.480Z,67.27
2023-04-22T06:14:13.291Z,67.13
2023-04-22T06:14:46.765Z,67.00
2023-04-22T06:15:20.364Z,66.89
2023-04-22T06:15:53.922Z,66.78
2023-04-22T06:16:28.086Z,66.59
2023-04-22T06:17:01.987Z,66.40
2023-04-22T06:17:35.465Z,66.26
2023-04-22T06:18:08.828Z,66.07
2023-04-22T06:18:43.777Z,65.86
2023-04-22T06:19:17.032Z,65.68
2023-04-22T06:19:50.508Z,65.43
2023-04-22T06:20:24.323Z,65.16
2023-04-22T06:20:57.774Z,65.06
2023-04-22T06:21:32.900Z,64.92
2023-04-22T06:22:06.386Z,64.91
2023-04-22T06:22:39.875Z,64.97
2023-04-22T06:23:13.460Z,65.03
2023-04-22T06:23:46.833Z,64.93
2023-04-22T06:24:20.330Z,64.85
2023-04-22T06:24:53.718Z,64.68
2023-04-22T06:25:27.108Z,64.55
2023-04-22T06:26:01.817Z,64.28
2023-04-22T06:26:35.714Z,64.16
2023-04-22T06:27:09.205Z,64.22
2023-04-22T06:27:42.682Z,64.20
2023-04-22T06:28:16.306Z,64.08
2023-04-22T06:28:50.147Z,63.96
2023-04-22T06:29:23.443Z,63.83
2023-04-22T06:29:57.019Z,63.75
2023-04-22T06:30:30.906Z,63.85
2023-04-22T06:31:04.714Z,63.92
2023-04-22T06:31:38.232Z,64.16
2023-04-22T06:32:11.875Z,64.24
2023-04-22T06:32:45.510Z,64.51
2023-04-22T06:33:19.072Z,64.60
2023-04-22T06:33:52.771Z,64.79
2023-04-22T06:34:26.571Z,65.07
2023-04-22T06:35:00.055Z,65.04
2023-04-22T06:35:34.329Z,64.99
2023-04-22T06:36:08.034Z,65.41
2023-04-22T06:36:41.522Z,65.91
2023-04-22T06:37:15.070Z,66.27
2023-04-22T06:37:48.997Z,66.25
2023-04-22T06:38:22.707Z,65.86
2023-04-22T06:38:56.375Z,65.08
2023-04-22T06:39:30.074Z,65.24
2023-04-22T06:40:03.650Z,64.99
2023-04-22T06:40:37.745Z,65.03
2023-04-22T06:41:11.571Z,65.45
2023-04-22T06:41:45.203Z,65.62
2023-04-22T06:42:19.034Z,65.57
2023-04-22T06:42:52.497Z,65.70
2023-04-22T06:43:26.107Z,65.84
2023-04-22T06:44:00.056Z,66.07
2023-04-22T06:44:33.666Z,65.99
2023-04-22T06:45:09.578Z,65.92
2023-04-22T06:45:43.818Z,65.78
2023-04-22T06:46:18.067Z,65.34
2023-04-22T06:46:51.860Z,65.01
2023-04-22T06:47:25.939Z,64.77
2023-04-22T06:47:59.501Z,64.89
2023-04-22T06:48:33.060Z,64.34
2023-04-22T06:49:06.751Z,64.72
2023-04-22T06:49:41.456Z,65.13
2023-04-22T06:50:15.798Z,65.01
2023-04-22T06:50:49.283Z,65.06
2023-04-22T06:51:22.872Z,65.09
2023-04-22T06:51:56.464Z,64.89
2023-04-22T06:52:30.050Z,65.50
2023-04-22T06:53:03.450Z,66.12
2023-04-22T06:53:36.601Z,66.17
2023-04-22T06:54:09.980Z,66.07
2023-04-22T06:54:43.176Z,65.76
2023-04-22T06:55:16.655Z,65.52
2023-04-22T06:55:50.642Z,65.58
2023-04-22T06:56:24.228Z,65.07
2023-04-22T06:56:58.457Z,64.62
2023-04-22T06:57:31.824Z,64.29
2023-04-22T06:58:05.153Z,64.08
2023-04-22T06:58:38.558Z,63.82
2023-04-22T06:59:11.792Z,63.48
2023-04-22T06:59:46.822Z,63.28
2023-04-22T07:00:20.576Z,63.58
2023-04-22T07:00:54.068Z,63.60
2023-04-22T07:01:27.286Z,63.78
2023-04-22T07:02:00.680Z,63.92
2023-04-22T07:02:34.355Z,63.93
2023-04-22T07:03:07.931Z,63.91
2023-04-22T07:03:41.570Z,63.79
2023-04-22T07:04:15.121Z,63.51
2023-04-22T07:04:48.566Z,63.66
2023-04-22T07:05:21.951Z,63.65
2023-04-22T07:05:55.451Z,63.60
2023-04-22T07:06:29.171Z,63.45
2023-04-22T07:07:02.602Z,63.44
2023-04-22T07:07:36.212Z,63.29
2023-04-22T07:08:09.455Z,63.19
2023-04-22T07:08:43.060Z,63.12
2023-04-22T07:09:16.624Z,63.06
2023-04-22T07:09:49.949Z,62.95
2023-04-22T07:10:23.516Z,62.93
2023-04-22T07:10:58.225Z,62.79
2023-04-22T07:11:32.120Z,62.75
2023-04-22T07:12:06.049Z,62.77
2023-04-22T07:12:39.402Z,62.80
2023-04-22T07:13:12.825Z,62.82
2023-04-22T07:13:46.794Z,62.72
2023-04-22T07:14:20.070Z,62.77
2023-04-22T07:14:53.546Z,62.83
2023-04-22T07:15:26.933Z,62.76
2023-04-22T07:16:03.563Z,62.74
2023-04-22T07:16:37.124Z,62.14
2023-04-22T07:17:12.013Z,62.14
2023-04-22T07:17:45.517Z,62.51
2023-04-22T07:18:18.980Z,62.55
2023-04-22T07:18:52.270Z,62.33
2023-04-22T07:19:25.856Z,62.12
2023-04-22T07:19:59.248Z,62.45
2023-04-22T07:20:32.596Z,62.26
2023-04-22T07:21:06.417Z,62.19
2023-04-22T07:21:39.793Z,61.94
2023-04-22T07:22:13.268Z,62.00
2023-04-22T07:22:46.457Z,62.06
2023-04-22T07:23:20.136Z,62.13
2023-04-22T07:23:53.354Z,62.10
2023-04-22T07:24:27.196Z,62.15
2023-04-22T07:25:00.580Z,62.74
2023-04-22T07:25:33.973Z,62.80
2023-04-22T07:26:07.272Z,62.35
2023-04-22T07:26:42.300Z,61.52
2023-04-22T07:27:16.077Z,61.05
2023-04-22T07:27:49.478Z,61.00
2023-04-22T07:28:22.928Z,61.06
2023-04-22T07:28:56.322Z,61.22
2023-04-22T07:29:29.705Z,61.70
2023-04-22T07:30:04.168Z,61.54
2023-04-22T07:30:37.582Z,60.80
2023-04-22T07:31:11.233Z,60.48
2023-04-22T07:31:44.687Z,60.22
2023-04-22T07:32:18.045Z,60.01
2023-04-22T07:32:52.635Z,60.02